createdAt,value
2019-02-12T00:00:09.117Z,1.37
2019-02-12T00:15:25.977Z,0.70
2019-02-12T00:30:31.037Z,1.43
2019-02-12T00:45:48.479Z,1.53
2019-02-12T01:01:05.831Z,1.07
2019-02-12T01:16:23.657Z,1.17
2019-02-12T01:31:28.121Z,1.13
2019-02-12T01:46:45.806Z,1.80
2019-02-12T02:01:50.840Z,2.10
2019-02-12T02:17:15.126Z,1.77
2019-02-12T02:32:19.810Z,1.60
2019-02-12T02:47:37.086Z,2.80
2019-02-12T03:02:41.948Z,2.27
2019-02-12T03:17:46.767Z,2.87
2019-02-12T03:32:51.792Z,2.47
2019-02-12T03:47:56.319Z,1.93
2019-02-12T04:03:03.813Z,2.40
2019-02-12T04:18:08.913Z,2.97
2019-02-12T04:33:26.403Z,3.13
2019-02-12T04:48:59.743Z,2.60
2019-02-12T05:04:04.307Z,1.53
2019-02-12T05:19:21.848Z,1.80
2019-02-12T05:34:39.079Z,1.90
2019-02-12T05:49:43.878Z,1.70
2019-02-12T06:05:08.092Z,2.17
2019-02-12T06:20:24.930Z,1.97
2019-02-12T06:35:29.430Z,2.73
2019-02-12T06:50:33.880Z,2.17
2019-02-12T07:21:38.129Z,1.83
2019-02-12T07:36:55.233Z,1.50
2019-02-12T07:52:03.662Z,1.73
2019-02-12T08:07:11.523Z,2.10
2019-02-12T08:22:16.187Z,1.73
2019-02-12T08:37:41.911Z,1.70
2019-02-12T08:52:49.771Z,1.47
2019-02-12T09:08:15.462Z,1.60
2019-02-12T09:23:21.828Z,1.30
2019-02-12T09:38:47.841Z,1.30
2019-02-12T09:54:08.732Z,2.10
2019-02-12T10:09:14.847Z,1.20
2019-02-12T10:24:22.889Z,1.40
2019-02-12T10:39:27.885Z,0.87
2019-02-12T10:54:44.592Z,0.93
2019-02-12T11:10:02.995Z,1.07
2019-02-12T11:25:09.339Z,1.10
2019-02-12T11:40:14.419Z,1.10
2019-02-12T11:55:19.417Z,1.43
2019-02-12T12:10:25.864Z,1.37
2019-02-12T12:25:42.705Z,0.80
2019-02-12T12:40:47.304Z,1.40
2019-02-12T12:55:51.860Z,1.63
2019-02-12T13:10:58.399Z,0.97
2019-02-12T13:26:03.540Z,1.13
2019-02-12T13:41:08.580Z,1.60
2019-02-12T13:56:13.120Z,1.17
2019-02-12T14:11:17.986Z,1.13
2019-02-12T14:26:22.696Z,0.90
2019-02-12T14:41:27.599Z,0.97
2019-02-12T14:56:32.537Z,1.13
2019-02-12T15:11:37.210Z,1.30
2019-02-12T15:26:42.007Z,4.60
2019-02-12T15:41:46.727Z,1.33
2019-02-12T15:56:51.499Z,1.70
2019-02-12T16:11:55.991Z,7.67
2019-02-12T16:27:00.322Z,1.77
2019-02-12T16:42:04.941Z,3.27
2019-02-12T16:57:22.080Z,2.77
2019-02-12T17:12:39.171Z,1.83
2019-02-12T17:27:43.882Z,4.10
2019-02-12T17:43:08.121Z,16.47
2019-02-12T17:58:25.793Z,3.90
2019-02-12T18:13:31.045Z,3.80
2019-02-12T18:28:36.282Z,7.27
2019-02-12T18:44:01.142Z,4.17
2019-02-12T18:59:05.923Z,4.03
2019-02-12T19:14:30.005Z,3.40
2019-02-12T19:29:47.472Z,4.43
2019-02-12T19:44:53.262Z,5.77
2019-02-12T20:00:12.311Z,5.27
2019-02-12T20:15:29.587Z,5.83
2019-02-12T20:30:34.833Z,4.07
2019-02-12T20:45:51.743Z,5.20
2019-02-12T21:01:09.113Z,7.83
2019-02-12T21:16:13.788Z,13.80
2019-02-12T21:31:18.425Z,12.73
2019-02-12T21:46:23.475Z,12.13
2019-02-12T22:01:28.386Z,12.57
2019-02-12T22:16:33.674Z,11.33
2019-02-12T22:31:57.942Z,10.67
2019-02-12T22:47:15.275Z,8.80
2019-02-12T23:02:19.973Z,10.17
2019-02-12T23:17:24.762Z,9.87
2019-02-12T23:32:29.427Z,9.90
2019-02-12T23:47:34.148Z,10.13
